createdAt,value
2022-11-29T00:00:52.593Z,10.63
2022-11-29T00:03:21.447Z,11.18
2022-11-29T00:05:51.685Z,12.20
2022-11-29T00:08:21.390Z,12.20
2022-11-29T00:10:52.973Z,10.60
2022-11-29T00:13:23.567Z,10.38
2022-11-29T00:16:11.396Z,11.57
2022-11-29T00:18:54.299Z,10.35
2022-11-29T00:21:28.115Z,10.47
2022-11-29T00:24:07.021Z,10.88
2022-11-29T00:26:44.130Z,10.68
2022-11-29T00:29:15.367Z,12.20
2022-11-29T00:31:52.138Z,11.32
2022-11-29T00:34:30.623Z,11.63
2022-11-29T00:39:49.491Z,9.77
2022-11-29T00:45:13.464Z,10.60
2022-11-29T00:47:44.309Z,10.80
2022-11-29T00:50:13.995Z,12.02
2022-11-29T00:52:45.574Z,12.02
2022-11-29T00:55:34.381Z,9.73
2022-11-29T00:58:03.467Z,12.65
2022-11-29T01:00:32.904Z,11.00
2022-11-29T01:03:06.242Z,10.82
2022-11-29T01:05:37.466Z,11.02
2022-11-29T01:08:10.269Z,10.23
2022-11-29T01:10:39.040Z,11.40
2022-11-29T01:13:08.225Z,11.70
2022-11-29T01:15:37.670Z,12.68
2022-11-29T01:18:08.336Z,11.77
2022-11-29T01:20:39.581Z,8.23
2022-11-29T01:23:12.591Z,11.32
2022-11-29T01:25:41.350Z,11.87
2022-11-29T01:28:09.981Z,10.27
2022-11-29T01:30:41.503Z,11.68
2022-11-29T01:33:13.937Z,13.02
2022-11-29T01:35:49.251Z,9.70
2022-11-29T01:38:19.557Z,12.07
2022-11-29T01:41:00.419Z,12.32
2022-11-29T01:43:30.700Z,12.70
2022-11-29T01:46:01.935Z,9.73
2022-11-29T01:48:35.184Z,10.68
2022-11-29T01:51:07.282Z,11.03
2022-11-29T01:53:38.040Z,12.30
2022-11-29T01:56:08.814Z,11.73
2022-11-29T01:58:38.899Z,12.77
2022-11-29T02:01:09.960Z,12.98
2022-11-29T02:03:40.956Z,12.90
2022-11-29T02:06:09.911Z,12.18
2022-11-29T02:08:44.127Z,11.18
2022-11-29T02:12:00.188Z,13.23
2022-11-29T02:15:00.453Z,12.00
2022-11-29T02:17:41.647Z,11.03
2022-11-29T02:20:58.753Z,11.40
2022-11-29T02:24:18.428Z,10.68
2022-11-29T02:27:25.465Z,11.45
2022-11-29T02:30:28.938Z,11.77
2022-11-29T02:33:40.967Z,11.37
2022-11-29T02:36:46.882Z,12.13
2022-11-29T02:39:59.263Z,11.82
2022-11-29T02:43:08.452Z,15.15
2022-11-29T02:46:00.293Z,13.18
2022-11-29T02:48:57.448Z,7.70
2022-11-29T02:51:43.150Z,11.52
2022-11-29T02:54:24.444Z,12.82
2022-11-29T02:57:42.796Z,11.63
2022-11-29T03:00:16.487Z,10.77
2022-11-29T03:02:58.933Z,13.33
2022-11-29T03:05:44.782Z,14.15
2022-11-29T03:08:24.883Z,12.80
2022-11-29T03:11:06.157Z,11.68
2022-11-29T03:13:53.949Z,13.80
2022-11-29T03:16:42.538Z,13.97
2022-11-29T03:19:46.778Z,15.55
2022-11-29T03:22:35.948Z,15.25
2022-11-29T03:25:23.905Z,15.35
2022-11-29T03:28:03.009Z,11.80
2022-11-29T03:30:44.524Z,14.47
2022-11-29T03:36:20.041Z,14.32
2022-11-29T03:38:59.938Z,11.93
2022-11-29T03:41:37.906Z,12.88
2022-11-29T03:44:14.440Z,13.37
2022-11-29T03:46:51.607Z,12.57
2022-11-29T03:49:27.982Z,12.75
2022-11-29T03:52:07.407Z,11.35
2022-11-29T03:54:55.118Z,8.75
2022-11-29T03:57:34.996Z,11.37
2022-11-29T04:00:12.743Z,5.32
2022-11-29T04:03:22.067Z,11.60
2022-11-29T04:06:23.959Z,13.18
2022-11-29T04:09:29.321Z,16.08
2022-11-29T04:12:39.823Z,14.43
2022-11-29T04:15:52.942Z,11.15
2022-11-29T04:19:12.832Z,12.95
2022-11-29T04:22:23.038Z,13.52
2022-11-29T04:25:41.154Z,7.70
2022-11-29T04:28:55.288Z,11.70
2022-11-29T04:31:42.294Z,13.52
2022-11-29T04:35:03.147Z,12.15
2022-11-29T04:38:04.733Z,11.60
2022-11-29T04:41:18.452Z,12.50
2022-11-29T04:44:15.184Z,14.60
2022-11-29T04:47:17.154Z,15.38
2022-11-29T04:50:24.269Z,13.23
2022-11-29T04:53:34.626Z,12.70
2022-11-29T04:56:19.433Z,14.73
2022-11-29T04:59:00.721Z,13.43
2022-11-29T05:01:52.874Z,11.82
2022-11-29T05:04:28.223Z,10.82
2022-11-29T05:07:09.596Z,12.00
2022-11-29T05:10:00.769Z,7.78
2022-11-29T05:12:39.275Z,14.53
2022-11-29T05:15:39.457Z,14.68
2022-11-29T05:18:23.655Z,14.93
2022-11-29T05:21:04.738Z,15.48
2022-11-29T05:23:50.012Z,11.80
2022-11-29T05:26:27.867Z,13.13
2022-11-29T05:29:04.384Z,14.82
2022-11-29T05:32:11.427Z,15.77
2022-11-29T05:35:04.352Z,13.85
2022-11-29T05:37:46.587Z,12.68
2022-11-29T05:40:44.890Z,15.23
2022-11-29T05:44:04.200Z,15.27
2022-11-29T05:46:50.751Z,14.73
2022-11-29T05:49:50.169Z,15.00
2022-11-29T05:52:48.973Z,16.05
2022-11-29T05:55:45.347Z,14.60
2022-11-29T05:58:34.971Z,17.23
2022-11-29T06:01:19.749Z,17.85
2022-11-29T06:04:02.004Z,15.05
2022-11-29T06:06:43.768Z,20.92
2022-11-29T06:09:25.004Z,15.03
2022-11-29T06:12:05.398Z,17.58
2022-11-29T06:15:19.817Z,15.85
2022-11-29T06:18:17.556Z,13.73
2022-11-29T06:21:31.869Z,15.18
2022-11-29T06:24:54.329Z,14.87
2022-11-29T06:27:49.998Z,12.07
2022-11-29T06:30:31.289Z,17.70
2022-11-29T06:33:27.209Z,16.35
2022-11-29T06:36:16.177Z,20.50
2022-11-29T06:38:45.974Z,15.60
2022-11-29T06:41:24.508Z,12.75
2022-11-29T06:44:10.388Z,14.50
2022-11-29T06:46:55.827Z,18.08
2022-11-29T06:49:33.653Z,15.93
2022-11-29T06:52:20.259Z,15.47
2022-11-29T06:55:18.347Z,18.42
2022-11-29T06:58:19.599Z,16.85
2022-11-29T07:01:10.011Z,14.82
2022-11-29T07:04:08.841Z,18.48
2022-11-29T07:06:41.340Z,17.90
2022-11-29T07:09:18.124Z,13.93
2022-11-29T07:11:50.347Z,13.88
2022-11-29T07:14:21.485Z,13.05
2022-11-29T07:17:03.150Z,14.80
2022-11-29T07:19:46.076Z,15.73
2022-11-29T07:22:37.161Z,13.40
2022-11-29T07:25:26.784Z,13.82
2022-11-29T07:28:11.961Z,15.10
2022-11-29T07:31:01.452Z,14.55
2022-11-29T07:33:44.419Z,17.03
2022-11-29T07:36:26.080Z,16.10
2022-11-29T07:39:15.386Z,18.80
2022-11-29T07:41:53.702Z,13.80
2022-11-29T07:44:34.884Z,16.45
2022-11-29T07:47:09.469Z,14.83
2022-11-29T07:49:38.097Z,15.40
2022-11-29T07:52:16.660Z,14.52
2022-11-29T07:54:47.442Z,14.55
2022-11-29T07:57:16.235Z,16.67
2022-11-29T07:59:46.179Z,14.13
2022-11-29T08:02:29.912Z,11.73
2022-11-29T08:04:59.261Z,15.43
2022-11-29T08:07:35.065Z,12.75
2022-11-29T08:10:03.818Z,14.35
2022-11-29T08:12:43.851Z,14.20
2022-11-29T08:15:29.583Z,17.40
2022-11-29T08:17:59.814Z,15.55
2022-11-29T08:20:31.408Z,17.67
2022-11-29T08:23:02.320Z,16.45
2022-11-29T08:25:36.809Z,16.20
2022-11-29T08:28:11.960Z,15.02
2022-11-29T08:30:40.731Z,15.85
2022-11-29T08:33:10.765Z,17.38
2022-11-29T08:35:40.087Z,15.25
2022-11-29T08:38:09.535Z,12.77
2022-11-29T08:40:42.664Z,15.35
2022-11-29T08:43:19.652Z,18.67
2022-11-29T08:45:53.837Z,17.10
2022-11-29T08:48:24.068Z,16.67
2022-11-29T08:50:53.860Z,16.20
2022-11-29T08:53:51.778Z,13.65
2022-11-29T08:57:10.132Z,16.55
2022-11-29T08:59:11.462Z,16.67
2022-11-29T09:01:40.972Z,15.48
2022-11-29T09:04:13.282Z,18.37
2022-11-29T09:06:44.923Z,14.55
2022-11-29T09:09:13.776Z,17.92
2022-11-29T09:11:45.841Z,15.90
2022-11-29T09:14:19.343Z,14.88
2022-11-29T09:16:48.140Z,16.13
2022-11-29T09:19:18.425Z,15.23
2022-11-29T09:21:47.100Z,16.98
2022-11-29T09:24:16.840Z,18.10
2022-11-29T09:26:48.347Z,19.60
2022-11-29T09:29:23.171Z,14.63
2022-11-29T09:31:53.239Z,15.13
2022-11-29T09:34:23.453Z,16.52
2022-11-29T09:36:52.619Z,16.60
2022-11-29T09:39:21.586Z,19.02
2022-11-29T09:42:27.823Z,18.03
2022-11-29T09:45:07.619Z,15.98
2022-11-29T09:48:05.083Z,16.90
2022-11-29T09:50:48.936Z,19.48
2022-11-29T09:53:43.644Z,17.33
2022-11-29T09:56:23.764Z,16.90
2022-11-29T09:59:00.273Z,18.08
2022-11-29T10:01:34.529Z,13.23
2022-11-29T10:04:13.061Z,12.57
2022-11-29T10:06:51.577Z,17.30
2022-11-29T10:09:33.346Z,17.33
2022-11-29T10:12:14.821Z,18.55
2022-11-29T10:14:52.374Z,16.40
2022-11-29T10:17:38.209Z,15.43
2022-11-29T10:20:16.874Z,16.23
2022-11-29T10:22:55.493Z,15.27
2022-11-29T10:25:37.213Z,16.15
2022-11-29T10:28:14.835Z,17.17
2022-11-29T10:30:48.071Z,19.08
2022-11-29T10:33:23.486Z,21.90
2022-11-29T10:35:57.894Z,18.40
2022-11-29T10:38:34.435Z,21.77
2022-11-29T10:41:16.563Z,15.68
2022-11-29T10:43:45.696Z,15.15
2022-11-29T10:46:22.411Z,18.85
2022-11-29T10:48:51.140Z,17.67
2022-11-29T10:51:20.356Z,16.23
2022-11-29T10:53:56.362Z,21.10
2022-11-29T10:56:37.591Z,16.95
2022-11-29T10:59:16.127Z,18.25
2022-11-29T11:01:46.335Z,17.93
2022-11-29T11:04:24.928Z,16.05
2022-11-29T11:07:04.897Z,17.23
2022-11-29T11:09:39.454Z,18.67
2022-11-29T11:12:21.932Z,17.23
2022-11-29T11:14:52.284Z,19.87
2022-11-29T11:17:32.694Z,16.45
2022-11-29T11:20:06.415Z,15.65
2022-11-29T11:22:39.975Z,15.38
2022-11-29T11:25:30.300Z,18.60
2022-11-29T11:28:15.453Z,17.23
2022-11-29T11:30:53.561Z,17.33
2022-11-29T11:33:27.400Z,16.95
2022-11-29T11:36:14.610Z,13.57
2022-11-29T11:38:55.174Z,20.23
2022-11-29T11:41:43.694Z,20.23
2022-11-29T11:44:53.589Z,18.75
2022-11-29T11:47:25.579Z,18.90
2022-11-29T11:50:08.923Z,18.25
2022-11-29T11:52:50.684Z,16.60
2022-11-29T11:55:32.746Z,18.37
2022-11-29T11:58:16.927Z,16.73
2022-11-29T12:01:05.350Z,22.88
2022-11-29T12:03:46.998Z,15.63
2022-11-29T12:06:50.239Z,20.38
2022-11-29T12:09:34.610Z,18.77
2022-11-29T12:12:16.465Z,20.15
2022-11-29T12:14:58.246Z,20.20
2022-11-29T12:17:35.633Z,15.13
2022-11-29T12:20:20.494Z,17.10
2022-11-29T12:23:24.474Z,18.50
2022-11-29T12:26:00.207Z,17.48
2022-11-29T12:28:33.048Z,14.63
2022-11-29T12:31:28.526Z,19.83
2022-11-29T12:34:11.120Z,16.17
2022-11-29T12:36:51.721Z,16.80
2022-11-29T12:39:44.580Z,17.25
2022-11-29T12:42:36.077Z,19.27
2022-11-29T12:45:25.726Z,16.40
2022-11-29T12:48:24.878Z,18.52
2022-11-29T12:51:04.778Z,20.73
2022-11-29T12:53:55.253Z,14.80
2022-11-29T12:56:31.272Z,16.60
2022-11-29T12:59:22.250Z,15.05
2022-11-29T13:02:16.837Z,18.13
2022-11-29T13:04:59.904Z,13.53
2022-11-29T13:07:41.328Z,12.60
2022-11-29T13:10:37.427Z,13.88
2022-11-29T13:13:20.244Z,16.85
2022-11-29T13:16:01.998Z,17.00
2022-11-29T13:18:42.052Z,11.67
2022-11-29T13:21:18.062Z,14.95
2022-11-29T13:24:07.897Z,15.23
2022-11-29T13:26:40.643Z,16.83
2022-11-29T13:29:17.991Z,15.75
2022-11-29T13:31:53.377Z,15.17
2022-11-29T13:34:32.312Z,16.30
2022-11-29T13:37:14.501Z,16.83
2022-11-29T13:40:00.579Z,25.65
2022-11-29T13:42:41.991Z,23.13
2022-11-29T13:45:25.454Z,17.93
2022-11-29T13:47:57.544Z,15.93
2022-11-29T13:50:42.596Z,15.30
2022-11-29T13:53:19.408Z,19.73
2022-11-29T13:56:00.390Z,15.43
2022-11-29T13:58:40.276Z,41.27
2022-11-29T14:01:12.041Z,15.77
2022-11-29T14:03:43.915Z,21.50
2022-11-29T14:06:21.322Z,13.68
2022-11-29T14:09:25.275Z,18.60
2022-11-29T14:12:19.815Z,15.77
2022-11-29T14:14:55.793Z,12.90
2022-11-29T14:17:37.330Z,14.38
2022-11-29T14:20:55.347Z,12.57
2022-11-29T14:23:38.024Z,13.75
2022-11-29T14:26:31.955Z,15.67
2022-11-29T14:29:01.306Z,13.32
2022-11-29T14:31:51.834Z,11.70
2022-11-29T14:34:44.960Z,18.38
2022-11-29T14:37:45.185Z,14.60
2022-11-29T14:40:36.102Z,17.23
2022-11-29T14:43:24.668Z,15.27
2022-11-29T14:46:11.083Z,15.57
2022-11-29T14:48:40.921Z,17.80
2022-11-29T14:51:12.462Z,12.73
2022-11-29T14:53:44.354Z,16.23
2022-11-29T14:56:45.686Z,15.30
2022-11-29T14:59:51.335Z,19.42
2022-11-29T15:02:32.567Z,15.95
2022-11-29T15:05:16.217Z,17.10
2022-11-29T15:07:52.552Z,17.67
2022-11-29T15:10:28.330Z,15.82
2022-11-29T15:13:00.917Z,15.82
2022-11-29T15:16:02.983Z,16.95
2022-11-29T15:19:33.051Z,16.45
2022-11-29T15:22:14.342Z,14.17
2022-11-29T15:24:54.768Z,12.70
2022-11-29T15:27:24.216Z,15.40
2022-11-29T15:29:53.285Z,17.20
2022-11-29T15:32:28.705Z,16.95
2022-11-29T15:34:59.959Z,17.47
2022-11-29T15:37:52.835Z,18.77
2022-11-29T15:40:24.810Z,16.65
2022-11-29T15:43:02.025Z,13.13
2022-11-29T15:45:35.180Z,15.43
2022-11-29T15:48:21.406Z,17.47
2022-11-29T15:51:06.632Z,14.82
2022-11-29T15:53:41.615Z,14.52
2022-11-29T15:56:27.854Z,18.55
2022-11-29T15:59:17.181Z,12.80
2022-11-29T16:01:49.659Z,16.23
2022-11-29T16:04:29.596Z,12.88
2022-11-29T16:06:59.112Z,16.02
2022-11-29T16:09:37.418Z,15.45
2022-11-29T16:12:13.972Z,16.73
2022-11-29T16:14:51.779Z,15.63
2022-11-29T16:17:22.006Z,12.27
2022-11-29T16:20:05.284Z,14.90
2022-11-29T16:22:33.880Z,14.73
2022-11-29T16:25:08.616Z,15.13
2022-11-29T16:27:39.375Z,16.60
2022-11-29T16:30:22.377Z,14.40
2022-11-29T16:32:55.428Z,16.77
2022-11-29T16:35:29.886Z,15.35
2022-11-29T16:37:58.926Z,15.60
2022-11-29T16:40:31.846Z,14.90
2022-11-29T16:43:24.197Z,16.05
2022-11-29T16:46:45.577Z,16.40
2022-11-29T16:49:35.115Z,14.73
2022-11-29T16:52:26.435Z,20.38
2022-11-29T16:55:02.859Z,13.37
2022-11-29T16:57:52.396Z,18.55
2022-11-29T17:00:32.230Z,15.52
2022-11-29T17:03:15.810Z,15.32
2022-11-29T17:05:45.995Z,18.13
2022-11-29T17:08:34.803Z,14.67
2022-11-29T17:11:06.459Z,17.23
2022-11-29T17:13:35.597Z,12.13
2022-11-29T17:16:04.735Z,16.00
2022-11-29T17:18:33.728Z,28.90
2022-11-29T17:21:02.726Z,14.47
2022-11-29T17:23:33.256Z,18.13
2022-11-29T17:26:04.559Z,35.47
2022-11-29T17:28:37.400Z,20.27
2022-11-29T17:31:11.203Z,14.18
2022-11-29T17:33:40.884Z,14.50
2022-11-29T17:36:15.327Z,15.35
2022-11-29T17:38:46.976Z,16.23
2022-11-29T17:41:18.326Z,15.77
2022-11-29T17:43:47.523Z,15.05
2022-11-29T17:46:20.348Z,14.13
2022-11-29T17:48:49.703Z,16.10
2022-11-29T17:51:50.661Z,13.35
2022-11-29T17:54:15.071Z,18.40
2022-11-29T17:56:45.132Z,14.43
2022-11-29T17:59:16.562Z,17.83
2022-11-29T18:02:02.896Z,20.42
2022-11-29T18:04:34.171Z,15.63
2022-11-29T18:07:04.057Z,17.52
2022-11-29T18:09:37.686Z,19.70
2022-11-29T18:12:15.577Z,15.13
2022-11-29T18:14:45.530Z,16.70
2022-11-29T18:17:15.517Z,14.25
2022-11-29T18:19:46.509Z,17.48
2022-11-29T18:22:23.745Z,17.15
2022-11-29T18:25:15.832Z,16.20
2022-11-29T18:27:46.206Z,16.75
2022-11-29T18:30:16.572Z,12.90
2022-11-29T18:32:47.908Z,13.60
2022-11-29T18:35:18.529Z,16.80
2022-11-29T18:38:14.112Z,11.43
2022-11-29T18:40:43.064Z,15.38
2022-11-29T18:43:13.591Z,14.15
2022-11-29T18:45:43.163Z,15.05
2022-11-29T18:48:13.153Z,13.35
2022-11-29T18:50:42.318Z,14.67
2022-11-29T18:53:12.427Z,16.63
2022-11-29T18:55:44.677Z,13.05
2022-11-29T18:58:17.994Z,14.82
2022-11-29T19:00:50.863Z,14.73
2022-11-29T19:03:23.530Z,15.07
2022-11-29T19:05:56.039Z,12.35
2022-11-29T19:08:25.932Z,13.38
2022-11-29T19:11:04.089Z,17.88
2022-11-29T19:13:36.815Z,18.55
2022-11-29T19:16:13.075Z,13.07
2022-11-29T19:18:46.973Z,15.00
2022-11-29T19:21:19.087Z,16.80
2022-11-29T19:23:57.877Z,15.10
2022-11-29T19:26:31.576Z,11.65
2022-11-29T19:29:02.947Z,13.87
2022-11-29T19:31:36.238Z,15.90
2022-11-29T19:34:07.609Z,18.35
2022-11-29T19:36:43.685Z,14.77
2022-11-29T19:39:17.124Z,19.13
2022-11-29T19:42:07.450Z,13.80
2022-11-29T19:45:14.977Z,15.60
2022-11-29T19:47:34.135Z,14.23
2022-11-29T19:50:03.857Z,18.60
2022-11-29T19:52:35.133Z,10.23
2022-11-29T19:55:04.173Z,19.17
2022-11-29T19:57:35.127Z,14.93
2022-11-29T20:00:05.759Z,16.50
2022-11-29T20:02:42.367Z,17.05
2022-11-29T20:05:14.172Z,16.27
2022-11-29T20:07:44.185Z,15.83
2022-11-29T20:10:14.784Z,20.05
2022-11-29T20:12:45.765Z,19.50
2022-11-29T20:15:18.363Z,17.45
2022-11-29T20:17:52.924Z,17.17
2022-11-29T20:20:29.698Z,15.50
2022-11-29T20:22:58.985Z,18.75
2022-11-29T20:25:28.534Z,19.60
2022-11-29T20:28:00.635Z,19.45
2022-11-29T20:30:30.988Z,19.77
2022-11-29T20:33:13.910Z,20.37
2022-11-29T20:35:43.652Z,19.88
2022-11-29T20:38:27.699Z,18.60
2022-11-29T20:41:03.195Z,12.23
2022-11-29T20:43:46.348Z,19.27
2022-11-29T20:46:16.716Z,21.93
2022-11-29T20:48:53.985Z,15.68
2022-11-29T20:51:29.979Z,21.08
2022-11-29T20:53:59.850Z,17.17
2022-11-29T20:56:29.545Z,18.13
2022-11-29T20:58:59.487Z,20.90
2022-11-29T21:01:30.204Z,16.83
2022-11-29T21:04:05.110Z,19.50
2022-11-29T21:06:37.771Z,19.60
2022-11-29T21:12:03.909Z,22.38
2022-11-29T21:14:43.637Z,21.77
2022-11-29T21:17:17.668Z,20.70
2022-11-29T21:20:03.983Z,23.38
2022-11-29T21:22:48.038Z,23.65
2022-11-29T21:25:27.839Z,25.08
2022-11-29T21:27:57.759Z,20.33
2022-11-29T21:30:29.241Z,19.40
2022-11-29T21:33:09.393Z,18.58
2022-11-29T21:35:53.152Z,18.92
2022-11-29T21:38:26.037Z,16.45
2022-11-29T21:40:56.786Z,20.63
2022-11-29T21:44:04.203Z,24.60
2022-11-29T21:46:22.349Z,20.60
2022-11-29T21:48:53.489Z,18.80
2022-11-29T21:51:24.338Z,18.63
2022-11-29T21:53:53.785Z,19.23
2022-11-29T21:56:23.874Z,17.75
2022-11-29T21:58:54.473Z,19.23
2022-11-29T22:01:24.652Z,18.15
2022-11-29T22:04:06.838Z,20.38
2022-11-29T22:06:46.292Z,19.73
2022-11-29T22:09:17.138Z,18.67
2022-11-29T22:11:47.043Z,19.80
2022-11-29T22:14:26.625Z,20.63
2022-11-29T22:16:59.261Z,17.48
2022-11-29T22:19:30.886Z,19.67
2022-11-29T22:24:53.801Z,21.65
2022-11-29T22:27:23.029Z,18.63
2022-11-29T22:29:54.197Z,22.80
2022-11-29T22:32:28.387Z,19.47
2022-11-29T22:34:58.584Z,23.90
2022-11-29T22:37:27.665Z,20.52
2022-11-29T22:39:56.345Z,20.20
2022-11-29T22:42:26.829Z,28.40
2022-11-29T22:44:55.402Z,23.67
2022-11-29T22:47:25.514Z,21.65
2022-11-29T22:49:55.576Z,18.20
2022-11-29T22:52:24.886Z,23.77
2022-11-29T22:54:53.628Z,20.95
2022-11-29T22:57:25.273Z,24.20
2022-11-29T22:59:54.127Z,19.65
2022-11-29T23:02:33.032Z,23.15
2022-11-29T23:05:04.277Z,23.75
2022-11-29T23:07:33.978Z,23.98
2022-11-29T23:10:03.267Z,20.13
2022-11-29T23:12:32.697Z,23.92
2022-11-29T23:15:02.138Z,22.92
2022-11-29T23:17:37.061Z,23.83
2022-11-29T23:20:13.686Z,21.52
2022-11-29T23:22:58.500Z,22.67
2022-11-29T23:25:31.811Z,24.88
2022-11-29T23:28:05.211Z,24.73
2022-11-29T23:30:52.219Z,18.00
2022-11-29T23:36:16.855Z,25.03
2022-11-29T23:38:48.125Z,24.02
2022-11-29T23:41:19.007Z,27.45
2022-11-29T23:43:48.407Z,27.52
2022-11-29T23:46:19.809Z,30.38
2022-11-29T23:48:52.187Z,29.10
2022-11-29T23:51:27.230Z,28.67
2022-11-29T23:53:58.744Z,25.17
2022-11-29T23:56:45.138Z,27.92
2022-11-29T23:59:29.369Z,25.17
